Decoded Metar for KMYJ ( in ) (IATA:) | Meteo·Mobile Aviation Weather
aviador You're here:

KMYJ Decoded Metar

in
Report Time2018-09-18 15:15:00
UTC Time2018-09-18 15:26:52
Flight Rules mvfr MVFR
Wind220° at 06 kt
W.Decomp.*RWY 24: 5.6 kt HW 2.1 kt LCW
RWY 18: 4.6 kt HW 3.9 kt RCW
W.Rank220° ranks 9
Current wind is below 220° avg. (7.9)
Visibility8047 m
Phenomena:Haze
Clouds:N/A
Expected CloudBase > 3,200 ft AGL from Temp-Dew spread
CeilingNone
Temp29°C
Dew Point21°C (62% RH)
Heat Index31.3°C
QNH1015 hPa
Raw Report
KMYJ 181515Z AUTO 22006KT 5SM HZ CLR 29/21 A2998 RMK AO2=

Extra information for KMYJ:More info

Social comments